Terminal Aerodrome Forecast
Issued by NWS Bismarck, ND

Home | Current Version | Previous Version | Graphics & Text | Print | Product List | Glossary On
Versions: 1 2 3 4 5 6 7 8 9 10 11 12 13 14 15 16 17 18 19 20 21
000
FTUS43 KBIS 171500 AAA
TAFBIS
TAF AMD
KBIS 171529Z 1715/1812 19004KT P6SM BKN015
     FM171700 17006KT P6SM SCT045
     FM172100 20006KT P6SM VCTS SCT050CB
      TEMPO 1721/1723 3SM TSRA BKN040CB
     FM180100 25006KT P6SM BKN080=

USA.gov is the U.S. government's official web portal to all federal, state and local government web resources and services.